Time;durP1;ratioP1;P1;durP2;ratioP2;P2;SDS_P1;SDS_P2;PMS_P1;PMS_P2;Temp;Humidity;BMP_temperature;BMP_pressure;BME280_temperature;BME280_humidity;BME280_pressure;Samples;Min_cycle;Max_cycle;Signal;HPM_P1;HPM_P2
2023/08/27 00:02:22;;;;;;;6.67;4.40;;;16.20;49.60;;;;;;5113007;28;20467;-70
2023/08/27 00:04:47;;;;;;;5.03;3.60;;;16.20;49.40;;;;;;5112733;28;20204;-70
2023/08/27 00:07:13;;;;;;;8.30;4.80;;;16.20;49.60;;;;;;5117458;28;20269;-70
2023/08/27 00:09:38;;;;;;;4.37;3.97;;;16.20;49.50;;;;;;5117208;28;20645;-70
2023/08/27 00:12:04;;;;;;;6.30;2.83;;;16.30;49.40;;;;;;5117864;28;20246;-70
2023/08/27 00:14:30;;;;;;;3.77;3.23;;;16.30;49.20;;;;;;5118322;28;20653;-70
2023/08/27 00:16:56;;;;;;;7.00;4.07;;;16.30;48.10;;;;;;5117863;28;20184;-70
2023/08/27 00:19:21;;;;;;;6.33;3.80;;;16.40;47.10;;;;;;5118097;28;20208;-70
2023/08/27 00:21:48;;;;;;;5.17;4.23;;;16.50;48.80;;;;;;5117887;28;20196;-70
2023/08/27 00:24:13;;;;;;;7.37;3.93;;;16.40;50.10;;;;;;5117476;28;20168;-70
2023/08/27 00:26:39;;;;;;;6.33;3.77;;;16.40;50.30;;;;;;5117758;28;20482;-70
2023/08/27 00:29:05;;;;;;;7.20;3.87;;;16.50;49.00;;;;;;5117590;28;20214;-70
2023/08/27 00:31:30;;;;;;;6.83;4.23;;;16.50;49.50;;;;;;5117291;28;20549;-70
2023/08/27 00:33:56;;;;;;;11.00;4.37;;;16.50;50.50;;;;;;5117475;28;20664;-70
2023/08/27 00:36:21;;;;;;;5.80;4.30;;;16.60;48.80;;;;;;5116879;28;20180;-70
2023/08/27 00:38:47;;;;;;;4.60;3.27;;;16.70;47.30;;;;;;5117196;28;20260;-70
2023/08/27 00:41:13;;;;;;;6.37;4.60;;;16.80;46.60;;;;;;5117151;28;20199;-70
2023/08/27 00:43:40;;;;;;;3.53;3.23;;;16.80;46.90;;;;;;5116789;28;20183;-70
2023/08/27 00:46:06;;;;;;;5.13;3.00;;;16.90;45.60;;;;;;5117076;28;20180;-70
2023/08/27 00:48:32;;;;;;;7.40;3.00;;;16.90;44.60;;;;;;5117590;28;20417;-70
2023/08/27 00:50:57;;;;;;;6.23;3.40;;;16.90;44.30;;;;;;5116500;28;20466;-70
2023/08/27 00:53:23;;;;;;;10.80;4.20;;;16.90;43.80;;;;;;5116414;28;20418;-70
2023/08/27 00:55:51;;;;;;;4.53;3.50;;;16.90;43.30;;;;;;5117154;28;20172;-70
2023/08/27 00:58:17;;;;;;;5.37;3.00;;;17.00;44.70;;;;;;5098648;28;20221;-70
2023/08/27 01:00:42;;;;;;;5.97;3.50;;;17.00;43.60;;;;;;5117103;28;20429;-70
2023/08/27 01:03:08;;;;;;;5.27;4.17;;;17.00;42.40;;;;;;5117216;28;20406;-70
2023/08/27 01:05:34;;;;;;;5.67;3.30;;;17.10;42.50;;;;;;5117177;28;20233;-70
2023/08/27 01:08:13;;;;;;;5.40;3.60;;;17.10;41.60;;;;;;5117634;28;20681;-70
2023/08/27 01:10:47;;;;;;;5.20;2.47;;;17.20;40.30;;;;;;5117409;28;20282;-70
2023/08/27 01:13:25;;;;;;;8.20;3.63;;;17.10;40.00;;;;;;5116203;28;20418;-70
2023/08/27 01:15:58;;;;;;;5.20;3.37;;;17.10;41.10;;;;;;5116050;28;20413;-70
2023/08/27 01:18:24;;;;;;;6.90;2.70;;;17.10;42.50;;;;;;5117131;28;20697;-70
2023/08/27 01:20:50;;;;;;;8.90;3.80;;;17.00;43.70;;;;;;5117365;28;20442;-70
2023/08/27 01:23:15;;;;;;;7.43;2.87;;;17.00;43.40;;;;;;5116720;28;20787;-71
2023/08/27 01:25:46;;;;;;;3.67;2.77;;;17.10;42.50;;;;;;5116673;28;20421;-71
2023/08/27 01:28:33;;;;;;;3.70;2.80;;;17.10;44.00;;;;;;5116934;28;20177;-71
2023/08/27 01:31:11;;;;;;;6.67;3.20;;;17.10;44.90;;;;;;5116755;28;20472;-70
2023/08/27 01:33:38;;;;;;;8.97;4.87;;;17.10;43.80;;;;;;5115198;28;20406;-70
2023/08/27 01:36:04;;;;;;;5.47;3.87;;;17.00;42.50;;;;;;5097527;28;20450;-70
2023/08/27 01:38:30;;;;;;;7.03;3.53;;;17.00;44.00;;;;;;5115983;28;20775;-70
2023/08/27 01:40:55;;;;;;;3.40;3.10;;;17.00;44.10;;;;;;5115796;28;20432;-70
2023/08/27 01:43:21;;;;;;;3.77;2.93;;;17.10;42.80;;;;;;5097406;28;20176;-70
2023/08/27 01:45:46;;;;;;;5.50;3.53;;;17.20;41.90;;;;;;5115840;28;20686;-70
2023/08/27 01:48:12;;;;;;;5.50;3.40;;;17.20;41.60;;;;;;5097748;28;20230;-70
2023/08/27 01:50:37;;;;;;;4.90;4.17;;;17.10;41.30;;;;;;5116126;28;20276;-70
2023/08/27 01:53:03;;;;;;;4.40;3.43;;;17.00;42.20;;;;;;5114202;28;20212;-69
2023/08/27 01:55:29;;;;;;;5.90;3.90;;;16.90;43.80;;;;;;5114520;28;20645;-70
2023/08/27 01:57:54;;;;;;;3.83;3.43;;;16.80;45.40;;;;;;5114582;28;20172;-70
2023/08/27 02:00:20;;;;;;;8.10;4.27;;;16.90;46.10;;;;;;5114345;28;20193;-70
2023/08/27 02:02:46;;;;;;;6.10;3.80;;;16.80;45.90;;;;;;5114056;28;20259;-70
2023/08/27 02:05:12;;;;;;;6.50;4.53;;;16.70;47.30;;;;;;5114582;28;20188;-70
2023/08/27 02:07:38;;;;;;;6.30;4.63;;;16.70;48.20;;;;;;5114224;28;20418;-70
2023/08/27 02:10:08;;;;;;;6.60;5.17;;;16.70;48.40;;;;;;5114064;28;20196;-69
2023/08/27 02:12:34;;;;;;;6.97;4.93;;;16.70;47.30;;;;;;5113911;28;20458;-69
2023/08/27 02:15:00;;;;;;;7.30;5.90;;;16.70;49.90;;;;;;5114178;28;20421;-69
2023/08/27 02:17:25;;;;;;;5.63;4.93;;;16.70;50.00;;;;;;5114058;28;20497;-70
2023/08/27 02:19:51;;;;;;;6.83;5.70;;;16.70;49.10;;;;;;5113998;28;20196;-69
2023/08/27 02:22:16;;;;;;;5.67;5.00;;;16.80;49.60;;;;;;5113939;28;20180;-69
2023/08/27 02:24:42;;;;;;;6.90;4.67;;;16.80;50.00;;;;;;5114166;28;20177;-69
2023/08/27 02:27:08;;;;;;;6.30;5.23;;;16.70;49.70;;;;;;5113704;28;20271;-69
2023/08/27 02:29:35;;;;;;;7.40;5.83;;;16.70;49.10;;;;;;5113063;28;20188;-70
2023/08/27 02:32:01;;;;;;;6.90;6.20;;;16.70;48.70;;;;;;5095012;28;20677;-70
2023/08/27 02:34:27;;;;;;;6.07;5.47;;;16.60;50.40;;;;;;5113551;28;20421;-70
2023/08/27 02:36:52;;;;;;;13.33;5.97;;;16.70;50.90;;;;;;5113482;28;20426;-69
2023/08/27 02:39:18;;;;;;;7.20;6.17;;;16.60;51.20;;;;;;5113686;28;20548;-69
2023/08/27 02:41:43;;;;;;;7.67;4.70;;;16.70;51.90;;;;;;5113276;28;20205;-69
2023/08/27 02:44:09;;;;;;;9.17;5.60;;;16.70;51.50;;;;;;5113452;28;20184;-69
2023/08/27 02:46:34;;;;;;;6.20;5.60;;;16.80;50.00;;;;;;5113553;28;20185;-69
2023/08/27 02:49:00;;;;;;;9.80;5.00;;;16.80;48.50;;;;;;5113469;28;20177;-70
2023/08/27 02:51:25;;;;;;;9.60;6.60;;;16.80;48.70;;;;;;5113100;28;20222;-70
2023/08/27 02:53:51;;;;;;;8.10;4.97;;;16.90;48.20;;;;;;5113113;28;20200;-69
2023/08/27 02:56:17;;;;;;;5.57;4.93;;;16.90;47.50;;;;;;5113280;28;20173;-71
2023/08/27 02:58:43;;;;;;;5.13;4.50;;;16.90;47.50;;;;;;5113251;28;20177;-70
2023/08/27 03:01:09;;;;;;;6.33;5.10;;;16.90;49.00;;;;;;5113343;28;20502;-70
2023/08/27 03:03:35;;;;;;;5.67;4.87;;;16.90;47.50;;;;;;5113020;28;20185;-70
2023/08/27 03:06:01;;;;;;;8.40;5.17;;;16.90;47.40;;;;;;5113128;28;20429;-70
2023/08/27 03:08:26;;;;;;;7.33;4.90;;;16.90;47.40;;;;;;5113084;28;20696;-71
2023/08/27 03:10:52;;;;;;;6.60;5.90;;;16.90;47.20;;;;;;5113002;28;20192;-71
2023/08/27 03:13:17;;;;;;;5.67;5.07;;;16.90;46.80;;;;;;5112800;28;20654;-71
2023/08/27 03:15:43;;;;;;;7.90;5.13;;;16.90;47.20;;;;;;5113115;28;20172;-71
2023/08/27 03:18:09;;;;;;;6.27;3.77;;;16.90;47.20;;;;;;5112929;28;20196;-71
2023/08/27 03:20:35;;;;;;;5.93;4.63;;;16.90;46.80;;;;;;5112751;28;20193;-71
2023/08/27 03:23:01;;;;;;;7.07;6.23;;;16.90;47.50;;;;;;5112966;28;20930;-71
2023/08/27 03:25:26;;;;;;;6.27;5.53;;;16.90;47.50;;;;;;5113265;28;20522;-71
2023/08/27 03:27:52;;;;;;;6.63;5.37;;;16.70;48.50;;;;;;5113100;28;20180;-70
2023/08/27 03:30:20;;;;;;;6.73;5.90;;;16.70;50.70;;;;;;5113242;28;20208;-71
2023/08/27 03:32:45;;;;;;;6.13;5.47;;;16.60;51.50;;;;;;5113071;28;20267;-70
2023/08/27 03:35:11;;;;;;;7.67;5.00;;;16.60;53.10;;;;;;5113245;28;20898;-72
2023/08/27 03:37:37;;;;;;;5.47;4.80;;;16.50;52.70;;;;;;5113084;28;20176;-71
2023/08/27 03:40:03;;;;;;;6.10;4.90;;;16.40;53.70;;;;;;5113152;28;20200;-70
2023/08/27 03:42:28;;;;;;;6.10;5.27;;;16.40;54.40;;;;;;5112637;28;20263;-71
2023/08/27 03:44:54;;;;;;;5.50;5.00;;;16.50;54.60;;;;;;5112788;28;20418;-70
2023/08/27 03:47:19;;;;;;;8.97;4.50;;;16.40;55.30;;;;;;5112510;28;20198;-71
2023/08/27 03:49:45;;;;;;;5.80;4.27;;;16.40;56.00;;;;;;5112275;28;20227;-72
2023/08/27 03:52:10;;;;;;;7.07;5.27;;;16.40;57.10;;;;;;5112112;28;20565;-71
2023/08/27 03:54:36;;;;;;;6.63;4.30;;;16.40;57.00;;;;;;5112654;28;20173;-72
2023/08/27 03:57:01;;;;;;;7.27;5.20;;;16.50;55.60;;;;;;5112528;28;20175;-71
2023/08/27 03:59:27;;;;;;;6.47;4.67;;;16.50;54.90;;;;;;5112367;28;20198;-71
2023/08/27 04:01:52;;;;;;;4.30;3.90;;;16.50;55.70;;;;;;5112025;28;20664;-71
2023/08/27 04:04:18;;;;;;;5.37;4.10;;;16.60;54.90;;;;;;5112339;28;20529;-72
2023/08/27 04:06:44;;;;;;;3.93;3.33;;;16.60;53.90;;;;;;5112341;28;20180;-70
2023/08/27 04:09:09;;;;;;;5.30;4.80;;;16.60;54.50;;;;;;5112360;28;20183;-71
2023/08/27 04:11:35;;;;;;;5.10;4.10;;;16.70;52.80;;;;;;5093611;28;20216;-71
2023/08/27 04:14:00;;;;;;;4.00;3.57;;;16.70;52.40;;;;;;5112326;28;20176;-72
2023/08/27 04:16:26;;;;;;;4.00;3.53;;;16.70;53.30;;;;;;5112161;28;20181;-71
2023/08/27 04:18:51;;;;;;;5.93;4.53;;;16.70;54.70;;;;;;5112098;28;20656;-71
2023/08/27 04:21:17;;;;;;;6.77;4.63;;;16.70;52.40;;;;;;5112117;28;20272;-71
2023/08/27 04:23:42;;;;;;;5.20;4.00;;;16.70;52.40;;;;;;5112011;28;20539;-71
2023/08/27 04:26:08;;;;;;;7.50;3.93;;;16.70;51.90;;;;;;5112168;28;20206;-70
2023/08/27 04:28:33;;;;;;;5.03;3.30;;;16.70;52.40;;;;;;5112152;28;20603;-70
2023/08/27 04:30:59;;;;;;;3.70;2.50;;;16.60;52.30;;;;;;5111914;28;20669;-70
2023/08/27 04:33:25;;;;;;;4.00;2.67;;;16.60;51.40;;;;;;5111882;28;20176;-70
2023/08/27 04:35:52;;;;;;;3.37;1.97;;;16.60;50.20;;;;;;5112290;28;20180;-71
2023/08/27 04:38:18;;;;;;;3.53;1.90;;;16.60;49.00;;;;;;5111991;28;20219;-71
2023/08/27 04:40:43;;;;;;;3.50;1.80;;;16.60;47.80;;;;;;5112024;28;20461;-70
2023/08/27 04:43:09;;;;;;;2.60;1.80;;;16.60;46.40;;;;;;5112383;28;20177;-70
2023/08/27 04:45:37;;;;;;;2.30;1.53;;;16.70;47.30;;;;;;5112075;28;20278;-71
2023/08/27 04:48:03;;;;;;;3.20;1.40;;;16.70;46.90;;;;;;5112184;28;20177;-70
2023/08/27 04:50:28;;;;;;;2.87;1.60;;;16.70;46.00;;;;;;5111762;28;20454;-70
2023/08/27 04:52:54;;;;;;;3.10;1.80;;;16.70;45.00;;;;;;5114966;28;20493;-71
2023/08/27 04:55:19;;;;;;;3.10;1.77;;;16.70;44.70;;;;;;5115548;28;20173;-70
2023/08/27 04:57:45;;;;;;;3.10;2.07;;;16.70;47.30;;;;;;5115740;28;20173;-71
2023/08/27 05:00:16;;;;;;;2.70;1.57;;;16.70;47.30;;;;;;5097031;28;20200;-70
2023/08/27 05:02:42;;;;;;;2.13;1.73;;;16.80;46.00;;;;;;5115078;28;20213;-70
2023/08/27 05:05:07;;;;;;;2.97;1.50;;;16.80;44.70;;;;;;5115340;28;20415;-70
2023/08/27 05:07:33;;;;;;;2.40;1.73;;;16.90;42.90;;;;;;5115338;28;20203;-72
2023/08/27 05:09:58;;;;;;;1.93;1.20;;;16.90;42.70;;;;;;5115375;28;20196;-70
2023/08/27 05:12:24;;;;;;;3.17;2.30;;;17.00;43.20;;;;;;5115231;28;20283;-70
2023/08/27 05:14:49;;;;;;;3.73;1.90;;;17.00;42.40;;;;;;5115200;28;20674;-70
2023/08/27 05:17:15;;;;;;;2.33;1.30;;;17.00;44.10;;;;;;5115327;28;20184;-70
2023/08/27 05:19:40;;;;;;;3.80;1.30;;;17.00;44.50;;;;;;5115080;28;20184;-70
2023/08/27 05:22:06;;;;;;;2.33;1.40;;;17.00;44.40;;;;;;5114740;28;20627;-70
2023/08/27 05:24:31;;;;;;;2.97;1.93;;;17.00;43.00;;;;;;5115054;28;20181;-70
2023/08/27 05:26:57;;;;;;;2.50;1.80;;;17.00;44.20;;;;;;5115000;28;20546;-70
2023/08/27 05:29:23;;;;;;;2.33;1.43;;;17.20;42.60;;;;;;5114691;28;20550;-70
2023/08/27 05:31:48;;;;;;;2.70;1.87;;;17.20;41.00;;;;;;5114357;28;20293;-70
2023/08/27 05:34:14;;;;;;;3.13;1.97;;;17.20;40.40;;;;;;5114798;28;20196;-69
2023/08/27 05:36:39;;;;;;;3.17;2.10;;;17.20;41.10;;;;;;5115070;28;20179;-70
2023/08/27 05:39:05;;;;;;;3.00;2.20;;;17.20;42.60;;;;;;5114471;28;20649;-70
2023/08/27 05:41:31;;;;;;;3.03;2.47;;;17.20;43.40;;;;;;5114222;28;20199;-71
2023/08/27 05:43:56;;;;;;;4.03;3.00;;;17.10;43.60;;;;;;5114383;28;20180;-70
2023/08/27 05:46:22;;;;;;;4.83;3.10;;;17.10;45.40;;;;;;5114459;28;20285;-70
2023/08/27 05:48:48;;;;;;;4.27;2.97;;;17.00;46.00;;;;;;5114777;28;20180;-70
2023/08/27 05:51:13;;;;;;;5.57;3.47;;;17.10;46.70;;;;;;5109562;28;20253;-70
2023/08/27 05:53:39;;;;;;;3.47;2.80;;;17.10;45.30;;;;;;5101080;28;20260;-71
2023/08/27 05:56:04;;;;;;;5.97;2.80;;;17.20;45.20;;;;;;5075639;28;20253;-71
2023/08/27 05:58:30;;;;;;;3.67;2.33;;;17.10;45.60;;;;;;5101466;28;20634;-70
2023/08/27 06:00:56;;;;;;;5.00;3.50;;;17.10;44.80;;;;;;5093664;28;20276;-70
2023/08/27 06:03:22;;;;;;;3.80;3.00;;;17.20;46.20;;;;;;5093353;28;20174;-71
2023/08/27 06:05:47;;;;;;;5.97;1.97;;;17.40;44.10;;;;;;5093643;28;20544;-70
2023/08/27 06:08:13;;;;;;;3.10;2.20;;;17.40;42.80;;;;;;5093551;28;20178;-70
2023/08/27 06:10:39;;;;;;;3.90;2.37;;;17.50;42.90;;;;;;5101205;28;20197;-71
2023/08/27 06:13:04;;;;;;;3.00;2.10;;;17.70;39.80;;;;;;5093082;28;20216;-70
2023/08/27 06:15:31;;;;;;;2.90;1.80;;;17.80;38.30;;;;;;5075571;28;20184;-70
2023/08/27 06:18:02;;;;;;;3.07;2.60;;;18.00;37.80;;;;;;5093624;28;20173;-70
2023/08/27 06:20:28;;;;;;;2.90;1.77;;;18.10;32.90;;;;;;5093328;28;20423;-70
2023/08/27 06:22:53;;;;;;;5.60;2.77;;;18.30;32.50;;;;;;5093038;28;20414;-71
2023/08/27 06:25:21;;;;;;;4.37;1.90;;;18.40;29.90;;;;;;5093267;28;20205;-70
2023/08/27 06:27:46;;;;;;;8.90;2.00;;;18.40;30.00;;;;;;5093560;28;20177;-71
2023/08/27 06:30:12;;;;;;;4.33;2.00;;;18.60;29.20;;;;;;5093411;28;20480;-69
2023/08/27 06:32:37;;;;;;;3.17;2.27;;;18.70;28.30;;;;;;5092936;28;20214;-70
2023/08/27 06:35:03;;;;;;;3.70;1.90;;;18.90;27.60;;;;;;5093334;28;20593;-69
2023/08/27 06:37:29;;;;;;;4.60;1.50;;;18.90;27.00;;;;;;5093200;28;20560;-70
2023/08/27 06:39:55;;;;;;;2.50;1.50;;;19.20;26.40;;;;;;5093208;28;20427;-70
2023/08/27 06:42:20;;;;;;;2.37;1.67;;;19.30;26.20;;;;;;5093330;28;20185;-70
2023/08/27 06:44:46;;;;;;;3.60;1.70;;;19.30;25.40;;;;;;5093260;28;20547;-70
2023/08/27 06:47:11;;;;;;;5.43;2.30;;;19.40;24.80;;;;;;5101113;28;20618;-70
2023/08/27 06:49:37;;;;;;;2.97;1.67;;;19.30;25.50;;;;;;5093017;28;20670;-69
2023/08/27 06:52:03;;;;;;;2.53;1.60;;;19.20;27.30;;;;;;5092592;28;20193;-70
2023/08/27 06:54:29;;;;;;;3.03;1.70;;;19.20;25.50;;;;;;5102566;28;20256;-70
2023/08/27 06:56:55;;;;;;;3.03;1.40;;;18.90;27.50;;;;;;5113105;28;20445;-71
2023/08/27 06:59:20;;;;;;;5.00;2.00;;;18.90;29.60;;;;;;5113034;28;20652;-71
2023/08/27 07:01:46;;;;;;;2.20;1.30;;;18.80;29.30;;;;;;5112311;28;20208;-72
2023/08/27 07:04:11;;;;;;;4.13;1.93;;;18.80;28.60;;;;;;5112745;28;20626;-71
2023/08/27 07:06:37;;;;;;;4.40;1.43;;;19.00;28.30;;;;;;5112750;28;20626;-71
2023/08/27 07:09:04;;;;;;;3.23;1.87;;;19.00;26.90;;;;;;5112917;28;20196;-72
2023/08/27 07:11:30;;;;;;;2.80;1.83;;;18.90;27.50;;;;;;5112760;28;20693;-74
2023/08/27 07:13:55;;;;;;;4.93;2.47;;;18.90;27.10;;;;;;5094411;28;20422;-71
2023/08/27 07:16:21;;;;;;;3.00;2.00;;;18.80;29.50;;;;;;5113152;28;20172;-70
2023/08/27 07:18:49;;;;;;;2.77;1.40;;;18.70;29.70;;;;;;5113603;28;20618;-69
2023/08/27 07:21:14;;;;;;;3.17;1.57;;;18.90;28.20;;;;;;5113530;28;20200;-71
2023/08/27 07:23:40;;;;;;;3.40;1.57;;;18.90;25.10;;;;;;5112878;28;20421;-70
2023/08/27 07:26:06;;;;;;;2.47;1.47;;;18.90;24.50;;;;;;5112919;28;20188;-70
2023/08/27 07:28:31;;;;;;;2.07;1.37;;;18.90;28.10;;;;;;5112837;28;20316;-70
2023/08/27 07:30:57;;;;;;;3.03;2.00;;;19.00;26.70;;;;;;5093957;28;20200;-70
2023/08/27 07:33:23;;;;;;;3.30;1.20;;;19.10;24.50;;;;;;5112040;28;20189;-70
2023/08/27 07:35:48;;;;;;;2.43;1.33;;;19.00;23.40;;;;;;5112643;28;20181;-70
2023/08/27 07:38:14;;;;;;;2.37;1.43;;;19.00;23.30;;;;;;5112765;28;20168;-70
2023/08/27 07:40:40;;;;;;;2.33;1.47;;;19.00;23.60;;;;;;5112879;28;20653;-72
2023/08/27 07:43:06;;;;;;;2.43;1.43;;;19.20;23.80;;;;;;5113044;28;20478;-72
2023/08/27 07:45:32;;;;;;;6.00;2.30;;;19.30;23.50;;;;;;5114989;28;20453;-70
2023/08/27 07:47:58;;;;;;;3.23;1.40;;;19.50;23.50;;;;;;5113483;28;20442;-72
2023/08/27 07:50:25;;;;;;;3.00;1.40;;;19.80;20.80;;;;;;5113182;28;20449;-71
2023/08/27 07:52:51;;;;;;;2.30;1.47;;;20.10;19.50;;;;;;5112649;28;20208;-71
2023/08/27 07:55:17;;;;;;;4.97;1.77;;;20.30;16.80;;;;;;5113457;28;20823;-71
2023/08/27 07:57:42;;;;;;;2.60;1.80;;;20.30;16.80;;;;;;5113234;28;20169;-71
2023/08/27 08:00:09;;;;;;;4.27;1.47;;;20.20;18.10;;;;;;5112699;28;20226;-70
2023/08/27 08:02:34;;;;;;;2.40;1.57;;;19.90;18.90;;;;;;5113159;28;20184;-71
2023/08/27 08:05:01;;;;;;;2.30;1.40;;;19.90;20.90;;;;;;5112492;28;20422;-71
2023/08/27 08:07:27;;;;;;;2.63;1.70;;;20.10;18.60;;;;;;5112887;28;20632;-71
2023/08/27 08:09:52;;;;;;;3.10;1.23;;;20.50;16.90;;;;;;5112854;28;20453;-71
2023/08/27 08:12:19;;;;;;;2.43;1.90;;;20.70;15.00;;;;;;5112379;28;20211;-71
2023/08/27 08:14:44;;;;;;;2.43;1.40;;;20.70;14.30;;;;;;5112657;28;20177;-71
2023/08/27 08:17:11;;;;;;;2.47;1.57;;;21.00;13.70;;;;;;5112596;28;20410;-71
2023/08/27 08:19:37;;;;;;;2.80;1.70;;;21.20;12.30;;;;;;5112621;28;20635;-71
2023/08/27 08:22:03;;;;;;;6.53;2.03;;;21.20;10.90;;;;;;5112293;28;20425;-71
2023/08/27 08:24:28;;;;;;;4.13;1.60;;;21.10;9.40;;;;;;5112514;28;20413;-71
2023/08/27 08:26:54;;;;;;;3.10;2.17;;;21.00;9.70;;;;;;5096409;28;20207;-71
2023/08/27 08:29:20;;;;;;;4.00;2.10;;;20.90;11.90;;;;;;5116471;28;20183;-71
2023/08/27 08:31:46;;;;;;;3.90;2.13;;;20.50;12.60;;;;;;5116533;28;20268;-71
2023/08/27 08:34:12;;;;;;;3.03;2.00;;;20.10;16.60;;;;;;5116601;28;20449;-71
2023/08/27 08:36:37;;;;;;;3.10;2.20;;;20.00;17.10;;;;;;5116271;28;20191;-71
2023/08/27 08:39:04;;;;;;;2.43;1.47;;;19.80;20.80;;;;;;5116227;28;20180;-71
2023/08/27 08:41:29;;;;;;;2.80;1.47;;;19.60;22.40;;;;;;5116247;28;20205;-71
2023/08/27 08:44:07;;;;;;;5.23;1.40;;;19.70;20.90;;;;;;5116011;28;20417;-71
2023/08/27 08:46:35;;;;;;;2.33;1.70;;;19.60;23.20;;;;;;5115925;28;20165;-71
2023/08/27 08:49:03;;;;;;;2.63;2.10;;;19.90;23.00;;;;;;5115697;28;20414;-71
2023/08/27 08:51:32;;;;;;;2.43;1.67;;;20.30;21.10;;;;;;5097111;28;20474;-71
2023/08/27 08:54:03;;;;;;;3.17;1.90;;;20.40;18.50;;;;;;5115699;28;20422;-71
2023/08/27 08:56:36;;;;;;;2.07;1.20;;;20.70;16.40;;;;;;5115663;28;20425;-71
2023/08/27 08:59:03;;;;;;;2.10;1.23;;;21.00;13.10;;;;;;5115532;28;20881;-71
2023/08/27 09:01:30;;;;;;;3.00;1.50;;;21.30;13.00;;;;;;5115288;28;20441;-71
2023/08/27 09:03:59;;;;;;;8.03;1.80;;;20.90;12.70;;;;;;5115554;28;20421;-71
2023/08/27 09:06:26;;;;;;;2.83;1.83;;;21.00;14.40;;;;;;5115993;28;20770;-71
2023/08/27 09:08:52;;;;;;;3.40;1.77;;;21.00;13.70;;;;;;5115597;28;20421;-71
2023/08/27 09:11:21;;;;;;;2.63;1.87;;;21.00;13.30;;;;;;5115237;28;20466;-71
2023/08/27 09:13:47;;;;;;;3.70;1.83;;;21.00;12.90;;;;;;5115142;28;20407;-71
2023/08/27 09:16:13;;;;;;;3.10;1.67;;;21.10;15.70;;;;;;5115188;28;20425;-71
2023/08/27 09:18:39;;;;;;;2.50;1.70;;;21.10;14.50;;;;;;5115160;28;20426;-71
2023/08/27 09:21:06;;;;;;;2.90;1.80;;;21.10;14.40;;;;;;5115197;28;20592;-71
2023/08/27 09:23:37;;;;;;;4.63;2.27;;;21.50;11.00;;;;;;5114866;28;20541;-71
2023/08/27 09:26:03;;;;;;;3.60;1.83;;;21.40;10.70;;;;;;5096803;28;20922;-71
2023/08/27 09:28:29;;;;;;;1.70;0.87;;;21.30;10.30;;;;;;5114924;28;20414;-71
2023/08/27 09:30:55;;;;;;;2.33;1.27;;;21.20;10.50;;;;;;5114991;28;20518;-71
2023/08/27 09:33:39;;;;;;;3.03;1.77;;;21.20;11.30;;;;;;5114606;28;21015;-71
2023/08/27 09:36:06;;;;;;;2.30;1.40;;;21.20;9.90;;;;;;5114830;28;20540;-71
2023/08/27 09:38:33;;;;;;;2.17;1.23;;;21.40;10.40;;;;;;5096057;28;20425;-71
2023/08/27 09:41:13;;;;;;;2.67;1.53;;;21.80;7.50;;;;;;5114496;28;20426;-71
2023/08/27 09:43:39;;;;;;;4.97;2.17;;;22.40;5.80;;;;;;5114418;28;20464;-72
2023/08/27 09:46:10;;;;;;;7.87;2.07;;;22.70;4.10;;;;;;5114671;28;20430;-72
2023/08/27 09:48:36;;;;;;;2.77;1.63;;;22.90;4.90;;;;;;5114778;28;20180;-72
2023/08/27 09:51:07;;;;;;;2.63;1.43;;;23.30;2.50;;;;;;5114705;28;20497;-71
2023/08/27 09:53:33;;;;;;;3.07;2.03;;;23.60;1.00;;;;;;5114443;28;20225;-71
2023/08/27 09:56:01;;;;;;;2.53;1.53;;;24.00;1.00;;;;;;5114302;28;20927;-71
2023/08/27 09:58:27;;;;;;;4.83;2.80;;;24.00;1.00;;;;;;5114787;28;20223;-71
2023/08/27 10:01:03;;;;;;;3.00;1.63;;;23.80;1.00;;;;;;5114650;28;20838;-71
2023/08/27 10:03:29;;;;;;;3.33;2.00;;;23.20;1.00;;;;;;5114380;28;20252;-71
2023/08/27 10:05:55;;;;;;;2.73;1.50;;;22.50;1.60;;;;;;5114529;28;20828;-71
2023/08/27 10:08:21;;;;;;;3.67;1.90;;;22.20;2.90;;;;;;5114222;28;20500;-72
2023/08/27 10:10:46;;;;;;;3.87;2.40;;;21.90;4.50;;;;;;5095651;28;20193;-72
2023/08/27 10:13:14;;;;;;;2.80;1.60;;;21.40;7.20;;;;;;5113742;28;20654;-71
2023/08/27 10:15:40;;;;;;;6.23;3.50;;;21.10;8.00;;;;;;5114205;28;20169;-71
2023/08/27 10:18:13;;;;;;;3.20;1.70;;;21.00;6.00;;;;;;5114162;28;20489;-71
2023/08/27 10:20:41;;;;;;;3.10;1.70;;;21.30;7.80;;;;;;5095647;28;20575;-71
2023/08/27 10:23:10;;;;;;;4.20;1.83;;;21.50;5.70;;;;;;5113820;28;20798;-71
2023/08/27 10:25:37;;;;;;;2.23;1.37;;;21.40;4.80;;;;;;5114007;28;20922;-71
2023/08/27 10:28:03;;;;;;;3.73;1.90;;;21.50;6.80;;;;;;5114289;28;20410;-71
2023/08/27 10:30:31;;;;;;;3.13;1.93;;;21.80;3.80;;;;;;5115677;28;20487;-71
2023/08/27 10:32:57;;;;;;;4.40;2.37;;;21.70;4.10;;;;;;5114575;28;20542;-71
2023/08/27 10:35:23;;;;;;;2.20;1.40;;;22.00;4.80;;;;;;5114168;28;20446;-71
2023/08/27 10:37:53;;;;;;;2.37;1.27;;;22.10;3.50;;;;;;5114263;28;20176;-72
2023/08/27 10:40:20;;;;;;;2.70;1.80;;;21.90;3.70;;;;;;5113703;28;20950;-71
2023/08/27 10:42:45;;;;;;;4.03;2.47;;;21.60;5.30;;;;;;5113242;28;20415;-72
2023/08/27 10:45:17;;;;;;;2.40;1.60;;;21.80;4.80;;;;;;5113435;28;20422;-71
2023/08/27 10:48:05;;;;;;;3.60;1.40;;;21.50;5.70;;;;;;5113556;28;20199;-72
2023/08/27 10:50:56;;;;;;;2.87;1.90;;;21.50;3.40;;;;;;5112885;28;20640;-72
2023/08/27 10:53:22;;;;;;;2.87;1.67;;;21.70;3.20;;;;;;5113408;28;20753;-72
2023/08/27 10:55:51;;;;;;;8.53;2.67;;;22.10;3.70;;;;;;5113515;28;20408;-70
2023/08/27 10:58:23;;;;;;;3.53;2.27;;;22.20;4.30;;;;;;5113236;28;20908;-70
2023/08/27 11:01:04;;;;;;;3.77;1.90;;;22.40;1.60;;;;;;5113196;28;20522;-70
2023/08/27 11:03:55;;;;;;;3.90;2.00;;;22.50;1.00;;;;;;5113073;28;20444;-70
2023/08/27 11:06:40;;;;;;;4.10;1.80;;;22.60;2.80;;;;;;5113943;28;20475;-70
2023/08/27 11:09:20;;;;;;;2.70;1.60;;;22.40;1.00;;;;;;5113572;28;20760;-70
2023/08/27 11:11:52;;;;;;;2.07;1.27;;;21.70;1.90;;;;;;5112635;28;20553;-70
2023/08/27 11:14:19;;;;;;;2.30;1.40;;;22.00;2.70;;;;;;5113004;28;20406;-70
2023/08/27 11:17:06;;;;;;;3.60;2.00;;;22.20;1.70;;;;;;5112931;28;20398;-71
2023/08/27 11:19:37;;;;;;;2.73;1.60;;;22.30;1.90;;;;;;5112273;28;20422;-70
2023/08/27 11:22:06;;;;;;;2.33;1.53;;;22.20;1.00;;;;;;5112850;28;20481;-70
2023/08/27 11:24:32;;;;;;;3.40;1.67;;;22.20;1.00;;;;;;5112743;28;20410;-70
2023/08/27 11:27:02;;;;;;;2.40;1.70;;;22.20;1.00;;;;;;5112865;28;20433;-70
2023/08/27 11:29:28;;;;;;;2.50;1.90;;;22.50;1.00;;;;;;5112699;28;20203;-70
2023/08/27 11:31:56;;;;;;;2.87;1.80;;;22.50;1.00;;;;;;5112487;28;20824;-70
2023/08/27 11:34:22;;;;;;;3.00;1.70;;;22.40;1.00;;;;;;5112773;28;20938;-72
2023/08/27 11:36:49;;;;;;;3.80;1.80;;;22.60;1.00;;;;;;5112734;28;20402;-70
2023/08/27 11:39:16;;;;;;;5.27;2.30;;;22.50;1.00;;;;;;5095768;28;20267;-70
2023/08/27 11:41:45;;;;;;;3.03;2.13;;;22.70;1.00;;;;;;5113577;28;20437;-71
2023/08/27 11:44:11;;;;;;;2.57;1.70;;;22.90;1.00;;;;;;5113494;28;20414;-71
2023/08/27 11:46:38;;;;;;;2.80;1.80;;;22.80;1.00;;;;;;5113928;28;20415;-71
2023/08/27 11:49:05;;;;;;;2.57;1.20;;;22.90;1.00;;;;;;5114090;28;20535;-70
2023/08/27 11:51:33;;;;;;;3.20;2.10;;;23.10;1.00;;;;;;5112975;28;20457;-70
2023/08/27 11:53:58;;;;;;;3.40;2.03;;;22.50;1.00;;;;;;5113796;28;20402;-70
2023/08/27 11:56:24;;;;;;;4.87;1.70;;;22.50;1.00;;;;;;5114439;28;20412;-70
2023/08/27 11:58:54;;;;;;;4.03;1.93;;;22.40;1.00;;;;;;5113306;28;20208;-71
2023/08/27 12:01:20;;;;;;;3.93;2.27;;;22.80;1.00;;;;;;5116133;28;20196;-72
2023/08/27 12:03:51;;;;;;;2.50;1.70;;;23.10;1.00;;;;;;5117363;28;20419;-71
2023/08/27 12:06:20;;;;;;;4.30;2.13;;;23.30;1.00;;;;;;5117586;28;20781;-70
2023/08/27 12:08:51;;;;;;;3.33;2.27;;;23.30;1.00;;;;;;5117120;28;20410;-71
2023/08/27 12:11:18;;;;;;;8.23;1.97;;;23.30;1.00;;;;;;5116923;28;20928;-71
2023/08/27 12:13:47;;;;;;;2.83;1.90;;;23.30;1.00;;;;;;5117157;28;20467;-71
2023/08/27 12:16:14;;;;;;;2.83;1.87;;;22.70;1.00;;;;;;5117111;28;20845;-70
2023/08/27 12:18:45;;;;;;;3.03;1.83;;;22.50;1.00;;;;;;5117378;28;20417;-71
2023/08/27 12:21:10;;;;;;;2.70;1.90;;;22.50;1.00;;;;;;5117245;28;20986;-71
2023/08/27 12:23:36;;;;;;;3.37;1.83;;;22.50;1.00;;;;;;5116722;28;20434;-71
2023/08/27 12:26:02;;;;;;;3.20;1.77;;;22.50;1.00;;;;;;5116993;28;20176;-71
2023/08/27 12:28:28;;;;;;;2.83;1.80;;;22.60;1.00;;;;;;5116421;28;20203;-71
2023/08/27 12:30:55;;;;;;;4.00;2.10;;;22.50;1.00;;;;;;5116093;28;20434;-71
2023/08/27 12:33:36;;;;;;;3.00;2.03;;;22.40;1.00;;;;;;5116343;28;20212;-71
2023/08/27 12:36:08;;;;;;;2.53;1.80;;;22.50;1.00;;;;;;5116507;28;20405;-71
2023/08/27 12:38:34;;;;;;;2.70;1.53;;;22.40;1.00;;;;;;5116030;28;20421;-70
2023/08/27 12:41:00;;;;;;;2.60;1.47;;;22.00;1.00;;;;;;5116007;28;20430;-71
2023/08/27 12:43:26;;;;;;;2.60;1.70;;;22.10;1.00;;;;;;5115729;28;20418;-71
2023/08/27 12:45:52;;;;;;;3.83;2.23;;;22.00;1.00;;;;;;5116050;28;20900;-71
2023/08/27 12:48:17;;;;;;;3.10;2.23;;;22.10;1.00;;;;;;5098183;28;20295;-70
2023/08/27 12:50:43;;;;;;;4.77;2.67;;;22.00;1.00;;;;;;5116058;28;20215;-71